TFM - Tactical Decision Aid (Experimental) INFO Settings
ID: Runway Winds: CIG/VIS Threshold: METAR Board: Map:

KCLT - Charlotte-Douglas Intl

Updated at: 0341 UTC 17 Aug 2017
Latest TAF at: 2332 UTC 16 Aug 2017

TAF Board

Time0252Z17/04Z17/05Z17/06Z17/07Z17/08Z17/09Z17/10Z17/11Z17/12Z17/13Z17/14Z17/15Z17/16Z
TypeOBSPRVLPRVLPRVLPRVLPRVLPRVLPRVLPRVLPRVLPRVLPRVLPRVLPRVL
VIS10>6>6>6>6>6>6>6>6>6>6>6>6>6
CIG90--------200200200200200200200----
CoverBKNSCTSCTSCTSCTBKNBKNBKNBKNBKNBKNBKNSCTSCT
FltCatVFRVFRVFRVFRVFRVFRVFRVFRVFRVFRVFRVFRVFRVFR
WX----------------------------
WDir40VRBVRBVRBVRB140140140140140140140200200
WSpd50000333333333
WGst----------------------------
TAF
KCLT 162332Z 1700/1724 28005KT P6SM FEW050 SCT110 BKN250
  FM170300 00000KT P6SM SCT090
  FM170800 14003KT P6SM BKN200
  FM171500 20003KT P6SM SCT040
  FM171900 21005KT P6SM BKN045
  PROB30 1719/1724 4SM -TSRA OVC025CB


METAR
KCLT 170252Z 04005KT 10SM BKN090 BKN120 29/23 A3006 RMK AO2 SLP168 T02890233 51016

TAF/METAR Board Legend

Potential Impact
  None Marginal Slight Moderate High
Visibility (sm) >5 3≤X≤5 1≤X<3 0.5≤X<1 <0.5
Ceiling (100 ft) >30 10≤X≤30 4≤X<10 2≤X<4 <2
Wind Speed (kt) <10 10≤X<20 20≤X<30 ≥30
Wind Gust (kt) <15 15≤X<25 25≤X<35 ≥35
Weather No Wx Reported VCTS -TS,-FZRA TS,FZRA +TS,+FZRA